sensor_id;sensor_type;location;lat;lon;timestamp;temperature;humidity
54158;DHT22;40065;49.894;10.358;2023-02-26T00:04:01;0.40;99.90
54158;DHT22;40065;49.894;10.358;2023-02-26T00:09:04;0.50;99.90
54158;DHT22;40065;49.894;10.358;2023-02-26T00:14:11;0.40;99.90
54158;DHT22;40065;49.894;10.358;2023-02-26T00:19:14;0.50;99.90
54158;DHT22;40065;49.894;10.358;2023-02-26T00:24:16;0.50;99.90
54158;DHT22;40065;49.894;10.358;2023-02-26T00:29:18;0.40;99.90
54158;DHT22;40065;49.894;10.358;2023-02-26T00:34:20;0.50;99.90
54158;DHT22;40065;49.894;10.358;2023-02-26T00:39:50;0.40;99.90
54158;DHT22;40065;49.894;10.358;2023-02-26T00:44:55;0.50;99.90
54158;DHT22;40065;49.894;10.358;2023-02-26T00:55:14;0.10;99.90
54158;DHT22;40065;49.894;10.358;2023-02-26T01:00:16;0.10;99.90
54158;DHT22;40065;49.894;10.358;2023-02-26T01:05:19;0.00;99.90
54158;DHT22;40065;49.894;10.358;2023-02-26T01:10:21;0.10;99.90
54158;DHT22;40065;49.894;10.358;2023-02-26T01:15:24;0.20;99.90
54158;DHT22;40065;49.894;10.358;2023-02-26T01:20:30;0.30;99.90
54158;DHT22;40065;49.894;10.358;2023-02-26T01:25:43;0.20;99.90
54158;DHT22;40065;49.894;10.358;2023-02-26T01:30:47;0.10;99.90
54158;DHT22;40065;49.894;10.358;2023-02-26T01:46:15;-0.20;99.90
54158;DHT22;40065;49.894;10.358;2023-02-26T01:56:44;-0.30;99.90
54158;DHT22;40065;49.894;10.358;2023-02-26T02:01:47;-0.20;99.90
54158;DHT22;40065;49.894;10.358;2023-02-26T02:06:50;-0.10;99.90
54158;DHT22;40065;49.894;10.358;2023-02-26T02:17:18;-0.30;99.90
54158;DHT22;40065;49.894;10.358;2023-02-26T02:22:56;-0.30;99.90
54158;DHT22;40065;49.894;10.358;2023-02-26T02:28:39;-0.40;99.90
54158;DHT22;40065;49.894;10.358;2023-02-26T02:34:31;-0.30;99.90
54158;DHT22;40065;49.894;10.358;2023-02-26T02:39:14;-0.50;99.90
54158;DHT22;40065;49.894;10.358;2023-02-26T02:44:18;-0.50;99.90
54158;DHT22;40065;49.894;10.358;2023-02-26T02:49:35;-0.70;99.90
54158;DHT22;40065;49.894;10.358;2023-02-26T02:54:48;-0.70;99.90
54158;DHT22;40065;49.894;10.358;2023-02-26T02:59:55;-0.70;99.90
54158;DHT22;40065;49.894;10.358;2023-02-26T03:04:58;-0.80;99.90
54158;DHT22;40065;49.894;10.358;2023-02-26T03:10:00;-0.70;99.90
54158;DHT22;40065;49.894;10.358;2023-02-26T03:15:03;-0.60;99.90
54158;DHT22;40065;49.894;10.358;2023-02-26T03:20:28;-0.60;99.90
54158;DHT22;40065;49.894;10.358;2023-02-26T03:41:55;-0.50;99.90
54158;DHT22;40065;49.894;10.358;2023-02-26T03:47:03;-0.40;99.90
54158;DHT22;40065;49.894;10.358;2023-02-26T03:52:08;-0.40;99.90
54158;DHT22;40065;49.894;10.358;2023-02-26T03:57:33;-0.30;99.90
54158;DHT22;40065;49.894;10.358;2023-02-26T04:02:59;-0.30;99.90
54158;DHT22;40065;49.894;10.358;2023-02-26T04:08:02;-0.40;99.90
54158;DHT22;40065;49.894;10.358;2023-02-26T04:13:05;-0.50;99.90
54158;DHT22;40065;49.894;10.358;2023-02-26T04:18:08;-0.50;99.90
54158;DHT22;40065;49.894;10.358;2023-02-26T04:23:10;-0.60;99.90
54158;DHT22;40065;49.894;10.358;2023-02-26T04:28:13;-0.50;99.90
54158;DHT22;40065;49.894;10.358;2023-02-26T04:33:15;-0.40;99.90
54158;DHT22;40065;49.894;10.358;2023-02-26T04:38:17;-0.40;99.90
54158;DHT22;40065;49.894;10.358;2023-02-26T04:43:19;-0.30;99.90
54158;DHT22;40065;49.894;10.358;2023-02-26T04:48:33;-0.30;99.90
54158;DHT22;40065;49.894;10.358;2023-02-26T04:53:35;-0.20;99.90
54158;DHT22;40065;49.894;10.358;2023-02-26T04:58:37;-0.30;99.90
54158;DHT22;40065;49.894;10.358;2023-02-26T05:03:43;-0.20;99.90
54158;DHT22;40065;49.894;10.358;2023-02-26T05:08:45;-0.20;99.90
54158;DHT22;40065;49.894;10.358;2023-02-26T05:13:47;-0.10;99.90
54158;DHT22;40065;49.894;10.358;2023-02-26T05:18:49;-0.10;99.90
54158;DHT22;40065;49.894;10.358;2023-02-26T05:23:51;0.00;99.90
54158;DHT22;40065;49.894;10.358;2023-02-26T05:28:53;-0.20;99.90
54158;DHT22;40065;49.894;10.358;2023-02-26T05:33:55;-0.20;99.90
54158;DHT22;40065;49.894;10.358;2023-02-26T05:38:57;-0.20;99.90
54158;DHT22;40065;49.894;10.358;2023-02-26T05:43:58;-0.20;99.90
54158;DHT22;40065;49.894;10.358;2023-02-26T05:49:00;-0.20;99.90
54158;DHT22;40065;49.894;10.358;2023-02-26T05:54:02;-0.20;99.90
54158;DHT22;40065;49.894;10.358;2023-02-26T05:59:05;-0.10;99.90
54158;DHT22;40065;49.894;10.358;2023-02-26T06:04:07;-0.10;99.90
54158;DHT22;40065;49.894;10.358;2023-02-26T06:09:09;-0.10;99.90
54158;DHT22;40065;49.894;10.358;2023-02-26T06:14:11;-0.10;99.90
54158;DHT22;40065;49.894;10.358;2023-02-26T06:19:12;-0.10;99.90
54158;DHT22;40065;49.894;10.358;2023-02-26T06:24:15;-0.10;99.90
54158;DHT22;40065;49.894;10.358;2023-02-26T06:29:17;0.00;99.90
54158;DHT22;40065;49.894;10.358;2023-02-26T06:34:19;0.00;99.90
54158;DHT22;40065;49.894;10.358;2023-02-26T06:39:22;0.00;99.90
54158;DHT22;40065;49.894;10.358;2023-02-26T06:44:24;0.10;99.90
54158;DHT22;40065;49.894;10.358;2023-02-26T06:49:26;0.10;99.90
54158;DHT22;40065;49.894;10.358;2023-02-26T06:54:28;0.20;99.90
54158;DHT22;40065;49.894;10.358;2023-02-26T06:59:30;0.20;99.90
54158;DHT22;40065;49.894;10.358;2023-02-26T07:04:32;0.10;99.90
54158;DHT22;40065;49.894;10.358;2023-02-26T07:09:33;0.20;99.90
54158;DHT22;40065;49.894;10.358;2023-02-26T07:14:36;0.30;99.90
54158;DHT22;40065;49.894;10.358;2023-02-26T07:19:38;0.30;99.90
54158;DHT22;40065;49.894;10.358;2023-02-26T07:24:40;0.40;99.90
54158;DHT22;40065;49.894;10.358;2023-02-26T07:29:42;0.60;99.90
54158;DHT22;40065;49.894;10.358;2023-02-26T07:34:44;0.90;99.90
54158;DHT22;40065;49.894;10.358;2023-02-26T07:39:46;1.50;99.90
54158;DHT22;40065;49.894;10.358;2023-02-26T07:44:48;2.10;99.90
54158;DHT22;40065;49.894;10.358;2023-02-26T07:49:50;2.30;99.90
54158;DHT22;40065;49.894;10.358;2023-02-26T07:54:51;2.30;99.90
54158;DHT22;40065;49.894;10.358;2023-02-26T07:59:53;1.90;99.90
54158;DHT22;40065;49.894;10.358;2023-02-26T08:04:55;1.60;99.90
54158;DHT22;40065;49.894;10.358;2023-02-26T08:09:58;1.50;99.90
54158;DHT22;40065;49.894;10.358;2023-02-26T08:14:59;1.30;99.90
54158;DHT22;40065;49.894;10.358;2023-02-26T08:20:01;1.40;99.90
54158;DHT22;40065;49.894;10.358;2023-02-26T08:25:06;1.60;99.90
54158;DHT22;40065;49.894;10.358;2023-02-26T08:30:09;1.90;99.90
54158;DHT22;40065;49.894;10.358;2023-02-26T08:35:11;2.60;99.90
54158;DHT22;40065;49.894;10.358;2023-02-26T08:40:13;5.40;99.90
54158;DHT22;40065;49.894;10.358;2023-02-26T08:45:16;8.90;92.80
54158;DHT22;40065;49.894;10.358;2023-02-26T08:50:18;10.70;87.90
54158;DHT22;40065;49.894;10.358;2023-02-26T08:55:20;7.30;91.00
54158;DHT22;40065;49.894;10.358;2023-02-26T09:00:24;4.70;97.00
54158;DHT22;40065;49.894;10.358;2023-02-26T09:05:25;3.60;98.90
54158;DHT22;40065;49.894;10.358;2023-02-26T09:10:28;2.90;99.90
54158;DHT22;40065;49.894;10.358;2023-02-26T09:15:30;2.90;99.90
54158;DHT22;40065;49.894;10.358;2023-02-26T09:20:32;2.70;99.90
54158;DHT22;40065;49.894;10.358;2023-02-26T09:25:34;4.10;99.90
54158;DHT22;40065;49.894;10.358;2023-02-26T09:30:36;7.80;92.90
54158;DHT22;40065;49.894;10.358;2023-02-26T09:35:38;6.70;93.20
54158;DHT22;40065;49.894;10.358;2023-02-26T09:40:53;4.40;97.60
54158;DHT22;40065;49.894;10.358;2023-02-26T09:46:01;3.70;99.70
54158;DHT22;40065;49.894;10.358;2023-02-26T09:51:04;3.10;99.90
54158;DHT22;40065;49.894;10.358;2023-02-26T09:56:16;2.90;99.90
54158;DHT22;40065;49.894;10.358;2023-02-26T10:01:45;2.90;99.90
54158;DHT22;40065;49.894;10.358;2023-02-26T10:07:18;2.50;99.90
54158;DHT22;40065;49.894;10.358;2023-02-26T10:12:24;2.50;99.90
54158;DHT22;40065;49.894;10.358;2023-02-26T10:22:41;2.60;99.90
54158;DHT22;40065;49.894;10.358;2023-02-26T10:27:50;2.50;99.90
54158;DHT22;40065;49.894;10.358;2023-02-26T10:33:17;2.80;99.90
54158;DHT22;40065;49.894;10.358;2023-02-26T10:38:24;2.80;99.90
54158;DHT22;40065;49.894;10.358;2023-02-26T10:43:45;2.80;99.90
54158;DHT22;40065;49.894;10.358;2023-02-26T10:54:32;3.80;99.90
54158;DHT22;40065;49.894;10.358;2023-02-26T10:59:34;3.70;99.20
54158;DHT22;40065;49.894;10.358;2023-02-26T11:04:36;3.90;98.90
54158;DHT22;40065;49.894;10.358;2023-02-26T11:09:43;3.90;98.90
54158;DHT22;40065;49.894;10.358;2023-02-26T11:14:47;3.70;98.90
54158;DHT22;40065;49.894;10.358;2023-02-26T11:20:03;3.40;99.90
54158;DHT22;40065;49.894;10.358;2023-02-26T11:25:13;3.30;99.90
54158;DHT22;40065;49.894;10.358;2023-02-26T11:30:19;3.40;98.80
54158;DHT22;40065;49.894;10.358;2023-02-26T11:35:24;3.20;98.70
54158;DHT22;40065;49.894;10.358;2023-02-26T11:40:38;3.60;98.30
54158;DHT22;40065;49.894;10.358;2023-02-26T11:45:43;3.30;98.10
54158;DHT22;40065;49.894;10.358;2023-02-26T11:50:46;3.20;98.60
54158;DHT22;40065;49.894;10.358;2023-02-26T11:55:52;2.80;99.10
54158;DHT22;40065;49.894;10.358;2023-02-26T12:01:00;2.90;99.90
54158;DHT22;40065;49.894;10.358;2023-02-26T12:06:02;2.80;99.30
54158;DHT22;40065;49.894;10.358;2023-02-26T12:28:30;3.70;98.40
54158;DHT22;40065;49.894;10.358;2023-02-26T12:38:48;3.40;98.70
54158;DHT22;40065;49.894;10.358;2023-02-26T12:43:54;3.40;99.70
54158;DHT22;40065;49.894;10.358;2023-02-26T12:54:42;3.60;98.70
54158;DHT22;40065;49.894;10.358;2023-02-26T13:05:29;3.40;96.20
54158;DHT22;40065;49.894;10.358;2023-02-26T13:10:53;4.30;96.60
54158;DHT22;40065;49.894;10.358;2023-02-26T13:16:00;4.50;97.20
54158;DHT22;40065;49.894;10.358;2023-02-26T13:21:19;5.00;95.00
54158;DHT22;40065;49.894;10.358;2023-02-26T13:26:23;5.70;92.50
54158;DHT22;40065;49.894;10.358;2023-02-26T13:36:44;5.40;91.00
54158;DHT22;40065;49.894;10.358;2023-02-26T13:42:01;5.80;92.40
54158;DHT22;40065;49.894;10.358;2023-02-26T13:52:25;4.60;94.40
54158;DHT22;40065;49.894;10.358;2023-02-26T14:02:46;5.40;91.70
54158;DHT22;40065;49.894;10.358;2023-02-26T14:07:53;5.20;92.30
54158;DHT22;40065;49.894;10.358;2023-02-26T14:13:23;5.20;91.50
54158;DHT22;40065;49.894;10.358;2023-02-26T14:23:47;5.10;92.50
54158;DHT22;40065;49.894;10.358;2023-02-26T14:34:34;4.30;90.70
54158;DHT22;40065;49.894;10.358;2023-02-26T14:39:44;4.30;91.20
54158;DHT22;40065;49.894;10.358;2023-02-26T14:44:50;4.60;91.50
54158;DHT22;40065;49.894;10.358;2023-02-26T14:49:54;4.00;90.10
54158;DHT22;40065;49.894;10.358;2023-02-26T14:55:37;3.90;90.80
54158;DHT22;40065;49.894;10.358;2023-02-26T15:12:42;3.90;91.20
54158;DHT22;40065;49.894;10.358;2023-02-26T15:28:02;3.40;90.60
54158;DHT22;40065;49.894;10.358;2023-02-26T15:33:11;3.50;90.60
54158;DHT22;40065;49.894;10.358;2023-02-26T15:38:14;3.70;90.40
54158;DHT22;40065;49.894;10.358;2023-02-26T15:43:20;3.30;88.90
54158;DHT22;40065;49.894;10.358;2023-02-26T15:48:29;3.20;90.10
54158;DHT22;40065;49.894;10.358;2023-02-26T15:53:41;3.00;90.70
54158;DHT22;40065;49.894;10.358;2023-02-26T15:58:55;2.90;89.80
54158;DHT22;40065;49.894;10.358;2023-02-26T16:04:06;2.50;90.20
54158;DHT22;40065;49.894;10.358;2023-02-26T16:09:33;2.60;90.80
54158;DHT22;40065;49.894;10.358;2023-02-26T16:14:42;2.40;90.60
54158;DHT22;40065;49.894;10.358;2023-02-26T16:19:46;2.50;90.60
54158;DHT22;40065;49.894;10.358;2023-02-26T16:24:56;2.30;90.60
54158;DHT22;40065;49.894;10.358;2023-02-26T16:30:00;2.10;91.20
54158;DHT22;40065;49.894;10.358;2023-02-26T16:35:14;2.00;92.00
54158;DHT22;40065;49.894;10.358;2023-02-26T16:40:33;1.80;92.50
54158;DHT22;40065;49.894;10.358;2023-02-26T16:50:37;1.90;95.60
54158;DHT22;40065;49.894;10.358;2023-02-26T16:55:39;1.80;96.00
54158;DHT22;40065;49.894;10.358;2023-02-26T17:00:44;1.70;96.60
54158;DHT22;40065;49.894;10.358;2023-02-26T17:05:59;1.60;96.20
54158;DHT22;40065;49.894;10.358;2023-02-26T17:11:15;1.50;95.50
54158;DHT22;40065;49.894;10.358;2023-02-26T17:16:18;1.40;95.20
54158;DHT22;40065;49.894;10.358;2023-02-26T17:21:23;1.30;95.60
54158;DHT22;40065;49.894;10.358;2023-02-26T17:26:25;1.10;96.30
54158;DHT22;40065;49.894;10.358;2023-02-26T17:31:27;1.00;96.70
54158;DHT22;40065;49.894;10.358;2023-02-26T17:36:29;0.90;97.00
54158;DHT22;40065;49.894;10.358;2023-02-26T17:41:31;0.90;97.20
54158;DHT22;40065;49.894;10.358;2023-02-26T17:46:34;0.90;97.30
54158;DHT22;40065;49.894;10.358;2023-02-26T17:51:36;0.80;97.50
54158;DHT22;40065;49.894;10.358;2023-02-26T17:56:38;0.80;97.40
54158;DHT22;40065;49.894;10.358;2023-02-26T18:01:42;0.70;97.80
54158;DHT22;40065;49.894;10.358;2023-02-26T18:06:44;0.50;97.80
54158;DHT22;40065;49.894;10.358;2023-02-26T18:11:45;0.50;98.30
54158;DHT22;40065;49.894;10.358;2023-02-26T18:16:47;0.40;98.70
54158;DHT22;40065;49.894;10.358;2023-02-26T18:21:49;0.40;98.50
54158;DHT22;40065;49.894;10.358;2023-02-26T18:26:51;0.40;98.90
54158;DHT22;40065;49.894;10.358;2023-02-26T18:31:53;0.50;98.60
54158;DHT22;40065;49.894;10.358;2023-02-26T18:36:55;0.40;99.20
54158;DHT22;40065;49.894;10.358;2023-02-26T18:41:57;0.30;99.20
54158;DHT22;40065;49.894;10.358;2023-02-26T18:46:59;0.30;99.40
54158;DHT22;40065;49.894;10.358;2023-02-26T18:52:01;0.20;99.50
54158;DHT22;40065;49.894;10.358;2023-02-26T18:57:04;0.20;99.80
54158;DHT22;40065;49.894;10.358;2023-02-26T19:02:07;0.10;99.90
54158;DHT22;40065;49.894;10.358;2023-02-26T19:07:12;0.00;99.90
54158;DHT22;40065;49.894;10.358;2023-02-26T19:12:14;0.10;99.90
54158;DHT22;40065;49.894;10.358;2023-02-26T19:17:20;0.00;99.90
54158;DHT22;40065;49.894;10.358;2023-02-26T19:22:22;0.00;99.90
54158;DHT22;40065;49.894;10.358;2023-02-26T19:27:24;-0.10;99.90
54158;DHT22;40065;49.894;10.358;2023-02-26T19:32:26;-0.20;99.90
54158;DHT22;40065;49.894;10.358;2023-02-26T19:37:29;-0.10;99.90
54158;DHT22;40065;49.894;10.358;2023-02-26T19:42:31;-0.20;99.90
54158;DHT22;40065;49.894;10.358;2023-02-26T19:47:32;-0.30;99.90
54158;DHT22;40065;49.894;10.358;2023-02-26T19:52:34;-0.30;99.90
54158;DHT22;40065;49.894;10.358;2023-02-26T19:57:37;-0.40;99.90
54158;DHT22;40065;49.894;10.358;2023-02-26T20:02:40;-0.30;99.90
54158;DHT22;40065;49.894;10.358;2023-02-26T20:07:43;-0.30;99.90
54158;DHT22;40065;49.894;10.358;2023-02-26T20:12:45;-0.30;99.90
54158;DHT22;40065;49.894;10.358;2023-02-26T20:17:47;-0.40;99.90
54158;DHT22;40065;49.894;10.358;2023-02-26T20:22:49;-0.50;99.90
54158;DHT22;40065;49.894;10.358;2023-02-26T20:27:51;-0.50;99.90
54158;DHT22;40065;49.894;10.358;2023-02-26T20:32:53;-0.50;99.90
54158;DHT22;40065;49.894;10.358;2023-02-26T20:37:55;-0.60;99.90
54158;DHT22;40065;49.894;10.358;2023-02-26T20:42:56;-0.70;99.90
54158;DHT22;40065;49.894;10.358;2023-02-26T20:47:59;-0.70;99.90
54158;DHT22;40065;49.894;10.358;2023-02-26T20:53:05;-0.70;99.90
54158;DHT22;40065;49.894;10.358;2023-02-26T20:58:07;-0.70;99.90
54158;DHT22;40065;49.894;10.358;2023-02-26T21:03:09;-0.80;99.90
54158;DHT22;40065;49.894;10.358;2023-02-26T21:08:12;-0.80;99.90
54158;DHT22;40065;49.894;10.358;2023-02-26T21:13:14;-0.90;99.90
54158;DHT22;40065;49.894;10.358;2023-02-26T21:18:16;-1.00;99.90
54158;DHT22;40065;49.894;10.358;2023-02-26T21:23:18;-1.00;99.90
54158;DHT22;40065;49.894;10.358;2023-02-26T21:28:20;-0.90;99.90
54158;DHT22;40065;49.894;10.358;2023-02-26T21:33:22;-1.00;99.90
54158;DHT22;40065;49.894;10.358;2023-02-26T21:38:24;-1.00;99.90
54158;DHT22;40065;49.894;10.358;2023-02-26T21:43:25;-1.00;99.90
54158;DHT22;40065;49.894;10.358;2023-02-26T21:48:27;-1.10;99.90
54158;DHT22;40065;49.894;10.358;2023-02-26T21:53:29;-1.10;99.90
54158;DHT22;40065;49.894;10.358;2023-02-26T21:58:31;-1.10;99.90
54158;DHT22;40065;49.894;10.358;2023-02-26T22:03:33;-1.10;99.90
54158;DHT22;40065;49.894;10.358;2023-02-26T22:08:35;-1.10;99.90
54158;DHT22;40065;49.894;10.358;2023-02-26T22:13:38;-1.10;99.90
54158;DHT22;40065;49.894;10.358;2023-02-26T22:18:40;-1.10;99.90
54158;DHT22;40065;49.894;10.358;2023-02-26T22:23:41;-1.20;99.90
54158;DHT22;40065;49.894;10.358;2023-02-26T22:28:43;-1.10;99.90
54158;DHT22;40065;49.894;10.358;2023-02-26T22:33:45;-1.20;99.90
54158;DHT22;40065;49.894;10.358;2023-02-26T22:38:47;-1.30;99.90
54158;DHT22;40065;49.894;10.358;2023-02-26T22:43:49;-1.30;99.90
54158;DHT22;40065;49.894;10.358;2023-02-26T22:48:54;-1.30;99.90
54158;DHT22;40065;49.894;10.358;2023-02-26T22:53:56;-1.30;99.90
54158;DHT22;40065;49.894;10.358;2023-02-26T22:58:58;-1.50;99.90
54158;DHT22;40065;49.894;10.358;2023-02-26T23:04:00;-1.40;99.90
54158;DHT22;40065;49.894;10.358;2023-02-26T23:09:03;-1.40;99.90
54158;DHT22;40065;49.894;10.358;2023-02-26T23:14:06;-1.40;99.90
54158;DHT22;40065;49.894;10.358;2023-02-26T23:19:09;-1.40;99.90
54158;DHT22;40065;49.894;10.358;2023-02-26T23:24:11;-1.40;99.90
54158;DHT22;40065;49.894;10.358;2023-02-26T23:29:13;-1.50;99.90
54158;DHT22;40065;49.894;10.358;2023-02-26T23:34:15;-1.50;99.90
54158;DHT22;40065;49.894;10.358;2023-02-26T23:39:17;-1.60;99.90
54158;DHT22;40065;49.894;10.358;2023-02-26T23:44:20;-1.50;99.90
54158;DHT22;40065;49.894;10.358;2023-02-26T23:49:22;-1.50;99.90
54158;DHT22;40065;49.894;10.358;2023-02-26T23:54:24;-1.70;99.90
54158;DHT22;40065;49.894;10.358;2023-02-26T23:59:26;-1.70;99.90
